Time;durP1;ratioP1;P1;durP2;ratioP2;P2;SDS_P1;SDS_P2;PMS_P1;PMS_P2;Temp;Humidity;BMP_temperature;BMP_pressure;BME280_temperature;BME280_humidity;BME280_pressure;Samples;Min_cycle;Max_cycle;Signal;HPM_P1;HPM_P2
2023/11/30 00:01:34;;;;;;;22.85;12.48;;;0.40;99.90;;;;;;5051664;28;20321;-52
2023/11/30 00:04:00;;;;;;;26.30;14.13;;;0.40;99.90;;;;;;5050568;28;20025;-50
2023/11/30 00:06:25;;;;;;;24.67;12.43;;;0.40;99.90;;;;;;5049618;28;20383;-48
2023/11/30 00:08:53;;;;;;;24.98;13.00;;;0.40;99.90;;;;;;5044904;28;20525;-50
2023/11/30 00:11:19;;;;;;;20.35;11.73;;;0.20;99.90;;;;;;5051717;28;20021;-51
2023/11/30 00:13:44;;;;;;;24.05;12.95;;;0.20;99.90;;;;;;5051610;28;20033;-50
2023/11/30 00:16:10;;;;;;;27.08;13.50;;;0.20;99.90;;;;;;5051400;28;20017;-51
2023/11/30 00:18:36;;;;;;;25.13;12.32;;;0.30;99.90;;;;;;5051356;28;20264;-52
2023/11/30 00:21:01;;;;;;;22.15;13.13;;;0.20;99.90;;;;;;5051397;28;20780;-49
2023/11/30 00:23:27;;;;;;;22.10;12.50;;;0.20;99.90;;;;;;5051228;28;20025;-49
2023/11/30 00:25:52;;;;;;;24.85;12.75;;;0.20;99.90;;;;;;5051183;28;20036;-48
2023/11/30 00:28:18;;;;;;;23.42;13.10;;;0.20;99.90;;;;;;5050411;28;20107;-48
2023/11/30 00:30:43;;;;;;;25.45;12.52;;;0.10;99.90;;;;;;5051383;28;20040;-51
2023/11/30 00:33:09;;;;;;;22.48;11.90;;;0.10;99.90;;;;;;5048161;28;20021;-48
2023/11/30 00:35:34;;;;;;;22.83;13.25;;;0.10;99.90;;;;;;5051101;28;20524;-48
2023/11/30 00:38:00;;;;;;;27.15;13.02;;;0.10;99.90;;;;;;5049556;28;20406;-48
2023/11/30 00:40:25;;;;;;;26.10;13.13;;;0.00;99.90;;;;;;5051133;28;20528;-48
2023/11/30 00:42:51;;;;;;;25.85;13.63;;;0.10;99.90;;;;;;5051033;28;20401;-48
2023/11/30 00:45:16;;;;;;;33.47;14.43;;;0.10;99.90;;;;;;5051350;28;20021;-52
2023/11/30 00:47:42;;;;;;;27.65;15.15;;;0.10;99.90;;;;;;5050698;28;20485;-51
2023/11/30 00:50:08;;;;;;;26.00;13.35;;;0.00;99.90;;;;;;5051237;28;20033;-50
2023/11/30 00:52:33;;;;;;;25.63;12.70;;;0.00;99.90;;;;;;5049313;28;20029;-48
2023/11/30 00:54:59;;;;;;;25.17;13.48;;;0.00;99.90;;;;;;5050888;28;20033;-48
2023/11/30 00:57:24;;;;;;;23.98;13.30;;;0.10;99.90;;;;;;5048921;28;20393;-49
2023/11/30 00:59:50;;;;;;;28.15;15.10;;;0.10;99.90;;;;;;5050212;28;20033;-49
2023/11/30 01:02:15;;;;;;;23.92;13.52;;;0.10;99.90;;;;;;5051117;28;20090;-48
2023/11/30 01:04:44;;;;;;;29.48;14.90;;;0.10;99.90;;;;;;5050719;28;20033;-51
2023/11/30 01:07:09;;;;;;;22.33;14.20;;;0.10;99.90;;;;;;5050456;28;20052;-49
2023/11/30 01:09:38;;;;;;;31.50;16.10;;;0.10;99.90;;;;;;5050147;28;20021;-50
2023/11/30 01:12:04;;;;;;;26.63;14.55;;;0.20;99.90;;;;;;5049259;28;20021;-48
2023/11/30 01:14:30;;;;;;;25.52;13.68;;;0.20;99.90;;;;;;5050505;28;20017;-48
2023/11/30 01:16:55;;;;;;;25.50;14.80;;;0.20;99.90;;;;;;5050677;28;20025;-51
2023/11/30 01:19:21;;;;;;;23.52;13.95;;;0.20;99.90;;;;;;5050503;28;20037;-48
2023/11/30 01:21:47;;;;;;;27.15;14.85;;;0.20;99.90;;;;;;5050702;28;20062;-50
2023/11/30 01:24:12;;;;;;;31.38;15.13;;;0.20;99.90;;;;;;5049120;28;20033;-49
2023/11/30 01:26:38;;;;;;;25.60;13.90;;;0.20;99.90;;;;;;5049968;28;20373;-50
2023/11/30 01:29:04;;;;;;;28.50;14.50;;;0.20;99.90;;;;;;5049986;28;20040;-52
2023/11/30 01:31:30;;;;;;;25.08;12.95;;;0.30;99.90;;;;;;5050062;28;20021;-48
2023/11/30 01:33:55;;;;;;;22.08;14.13;;;0.30;99.90;;;;;;5049953;28;20033;-52
2023/11/30 01:36:21;;;;;;;21.30;12.60;;;0.40;99.90;;;;;;5049685;28;20029;-48
2023/11/30 01:38:46;;;;;;;24.83;14.35;;;0.30;99.90;;;;;;5048229;28;20028;-49
2023/11/30 01:41:13;;;;;;;27.13;14.43;;;0.30;99.90;;;;;;5049791;28;20028;-50
2023/11/30 01:43:38;;;;;;;25.92;15.00;;;0.30;99.90;;;;;;5050077;28;20483;-51
2023/11/30 01:46:05;;;;;;;24.58;13.90;;;0.30;99.90;;;;;;5048232;28;20106;-53
2023/11/30 01:48:32;;;;;;;26.58;13.98;;;0.20;99.90;;;;;;5049572;28;20025;-49
2023/11/30 01:50:57;;;;;;;25.55;14.52;;;0.30;99.90;;;;;;5048588;28;20053;-51
2023/11/30 01:53:23;;;;;;;24.80;13.65;;;0.40;99.90;;;;;;5049566;28;20025;-48
2023/11/30 01:55:49;;;;;;;31.42;16.20;;;0.40;99.90;;;;;;5049779;28;20265;-48
2023/11/30 01:58:14;;;;;;;22.83;12.82;;;0.40;99.90;;;;;;5049116;28;20127;-49
2023/11/30 02:00:41;;;;;;;27.95;13.30;;;0.30;99.90;;;;;;5049460;28;20078;-48
2023/11/30 02:03:07;;;;;;;26.73;14.63;;;0.30;99.90;;;;;;5043400;28;20556;-47
2023/11/30 02:05:32;;;;;;;25.30;13.65;;;0.30;99.90;;;;;;5030006;28;20036;-49
2023/11/30 02:07:58;;;;;;;21.55;13.13;;;0.30;99.90;;;;;;5029483;28;20026;-47
2023/11/30 02:10:24;;;;;;;28.85;14.23;;;0.30;99.90;;;;;;5030153;28;20481;-48
2023/11/30 02:12:49;;;;;;;26.65;13.88;;;0.30;99.90;;;;;;5028947;28;20030;-48
2023/11/30 02:15:15;;;;;;;25.25;13.60;;;0.30;99.90;;;;;;5029294;28;20025;-50
2023/11/30 02:17:40;;;;;;;26.60;13.55;;;0.30;99.90;;;;;;5029657;28;20036;-48
2023/11/30 02:20:06;;;;;;;27.02;14.55;;;0.30;99.90;;;;;;5029609;28;20021;-48
2023/11/30 02:22:32;;;;;;;30.40;14.13;;;0.20;99.90;;;;;;5030034;28;20083;-50
2023/11/30 02:24:58;;;;;;;24.88;13.93;;;0.20;99.90;;;;;;5029537;28;20482;-49
2023/11/30 02:27:23;;;;;;;22.88;13.30;;;0.20;99.90;;;;;;5029582;28;20018;-48
2023/11/30 02:29:49;;;;;;;26.38;14.25;;;0.20;99.90;;;;;;5029995;28;20025;-49
2023/11/30 02:32:14;;;;;;;24.95;14.00;;;0.30;99.90;;;;;;5038087;28;20043;-50
2023/11/30 02:34:40;;;;;;;24.88;12.70;;;0.30;99.90;;;;;;5048739;28;20025;-51
2023/11/30 02:37:05;;;;;;;25.30;13.77;;;0.30;99.90;;;;;;5047318;28;20047;-49
2023/11/30 02:39:31;;;;;;;26.20;13.93;;;0.30;99.90;;;;;;5046750;28;20033;-50
2023/11/30 02:41:57;;;;;;;24.52;13.63;;;0.30;99.90;;;;;;5048814;28;20061;-52
2023/11/30 02:44:22;;;;;;;23.42;12.48;;;0.30;99.90;;;;;;5048691;28;20052;-47
2023/11/30 02:46:48;;;;;;;26.77;13.82;;;0.20;99.90;;;;;;5047771;28;20111;-50
2023/11/30 02:49:13;;;;;;;22.83;12.13;;;0.20;99.90;;;;;;5048435;28;20032;-48
2023/11/30 02:51:39;;;;;;;24.65;13.15;;;0.10;99.90;;;;;;5048618;28;20021;-49
2023/11/30 02:54:04;;;;;;;23.63;13.18;;;0.20;99.90;;;;;;5048714;28;20086;-51
2023/11/30 02:56:30;;;;;;;26.83;13.55;;;0.20;99.90;;;;;;5048256;28;20025;-49
2023/11/30 02:58:55;;;;;;;22.67;12.52;;;0.20;99.90;;;;;;5048278;28;20512;-53
2023/11/30 03:01:21;;;;;;;22.95;13.63;;;0.20;99.90;;;;;;5048313;28;20029;-47
2023/11/30 03:03:46;;;;;;;22.20;12.02;;;0.20;99.90;;;;;;5048223;28;20116;-49
2023/11/30 03:06:12;;;;;;;22.88;11.93;;;0.10;99.90;;;;;;5048182;28;20037;-48
2023/11/30 03:08:38;;;;;;;20.52;12.95;;;0.10;99.90;;;;;;5048179;28;20021;-48
2023/11/30 03:11:04;;;;;;;23.80;12.63;;;0.20;99.90;;;;;;5048306;28;20026;-47
2023/11/30 03:13:29;;;;;;;27.98;13.65;;;0.20;99.90;;;;;;5048274;28;20406;-50
2023/11/30 03:15:55;;;;;;;21.63;11.27;;;0.20;99.90;;;;;;5048363;28;20040;-48
2023/11/30 03:18:20;;;;;;;20.23;11.23;;;0.10;99.90;;;;;;5047490;28;20029;-48
2023/11/30 03:20:46;;;;;;;22.10;11.93;;;0.10;99.90;;;;;;5048571;28;20107;-51
2023/11/30 03:23:11;;;;;;;26.67;12.68;;;0.10;99.90;;;;;;5049959;28;20118;-48
2023/11/30 03:25:39;;;;;;;21.58;12.38;;;0.10;99.90;;;;;;5036114;28;20105;-51
2023/11/30 03:28:05;;;;;;;22.38;11.60;;;0.10;99.90;;;;;;5051969;28;20444;-52
2023/11/30 03:30:30;;;;;;;18.63;10.77;;;0.00;99.90;;;;;;5052499;28;20029;-47
2023/11/30 03:32:58;;;;;;;23.42;12.80;;;0.10;99.90;;;;;;5052248;28;20025;-50
2023/11/30 03:35:24;;;;;;;23.52;12.10;;;0.10;99.90;;;;;;5052250;28;20009;-50
2023/11/30 03:37:49;;;;;;;17.88;10.82;;;0.10;99.90;;;;;;5050731;28;20094;-51
2023/11/30 03:40:15;;;;;;;21.75;11.43;;;0.10;99.90;;;;;;5051100;28;20111;-49
2023/11/30 03:42:42;;;;;;;22.80;10.63;;;0.10;99.90;;;;;;5052367;28;20094;-50
2023/11/30 03:45:08;;;;;;;25.42;13.88;;;0.10;99.90;;;;;;5052656;28;20052;-47
2023/11/30 03:47:33;;;;;;;23.00;11.50;;;0.00;99.90;;;;;;5051871;28;20028;-48
2023/11/30 03:49:59;;;;;;;19.52;10.77;;;0.00;99.90;;;;;;5051003;28;20033;-51
2023/11/30 03:52:24;;;;;;;16.75;9.52;;;0.00;99.90;;;;;;5052355;28;20480;-50
2023/11/30 03:54:50;;;;;;;20.13;10.40;;;0.00;99.90;;;;;;5052071;28;20302;-52
2023/11/30 03:57:15;;;;;;;21.08;10.18;;;0.00;99.90;;;;;;5052107;28;20303;-48
2023/11/30 03:59:41;;;;;;;18.15;10.40;;;0.00;99.90;;;;;;5051620;28;20116;-49
2023/11/30 04:02:06;;;;;;;18.23;9.43;;;0.00;99.90;;;;;;5038310;28;20033;-48
2023/11/30 04:04:32;;;;;;;21.45;10.27;;;0.10;99.90;;;;;;5050799;28;20029;-47
2023/11/30 04:06:58;;;;;;;16.05;9.50;;;0.00;99.90;;;;;;5051574;28;20033;-48
2023/11/30 04:09:23;;;;;;;22.98;10.40;;;0.00;99.90;;;;;;5051360;28;20505;-48
2023/11/30 04:11:50;;;;;;;17.85;9.30;;;-0.10;99.90;;;;;;5051737;28;20060;-51
2023/11/30 04:14:15;;;;;;;17.70;9.48;;;-0.10;99.90;;;;;;5051429;28;20021;-47
2023/11/30 04:16:41;;;;;;;18.27;10.02;;;-0.10;99.90;;;;;;5051413;28;20075;-47
2023/11/30 04:19:06;;;;;;;20.75;10.48;;;-0.20;99.90;;;;;;5050010;28;20064;-48
2023/11/30 04:21:32;;;;;;;15.38;9.80;;;-0.10;99.90;;;;;;5051462;28;20037;-48
2023/11/30 04:23:57;;;;;;;18.83;9.13;;;-0.10;99.90;;;;;;5050073;28;20437;-48
2023/11/30 04:26:25;;;;;;;21.98;10.00;;;0.00;99.90;;;;;;5051141;28;20029;-49
2023/11/30 04:28:50;;;;;;;15.52;9.23;;;0.00;99.90;;;;;;5051454;28;20446;-52
2023/11/30 04:31:16;;;;;;;18.60;9.10;;;0.00;99.90;;;;;;5050025;28;20029;-49
2023/11/30 04:33:41;;;;;;;16.30;9.38;;;0.00;99.90;;;;;;5051211;28;20032;-52
2023/11/30 04:36:07;;;;;;;23.35;9.98;;;0.00;99.90;;;;;;5050559;28;20071;-52
2023/11/30 04:38:33;;;;;;;17.40;9.40;;;0.00;99.90;;;;;;5051092;28;20033;-48
2023/11/30 04:40:58;;;;;;;16.50;8.60;;;0.00;99.90;;;;;;5051570;28;20029;-50
2023/11/30 04:43:24;;;;;;;19.65;9.90;;;0.00;99.90;;;;;;5051247;28;20029;-51
2023/11/30 04:45:49;;;;;;;15.45;8.68;;;0.00;99.90;;;;;;5051166;28;20021;-49
2023/11/30 04:48:15;;;;;;;17.38;9.35;;;0.00;99.90;;;;;;5049119;28;20021;-50
2023/11/30 04:50:40;;;;;;;17.02;10.60;;;0.00;99.90;;;;;;5050964;28;20017;-48
2023/11/30 04:53:06;;;;;;;17.90;10.82;;;0.00;99.90;;;;;;5050745;28;20040;-51
2023/11/30 04:55:32;;;;;;;18.45;9.65;;;-0.10;99.90;;;;;;5050919;28;21040;-50
2023/11/30 04:57:57;;;;;;;16.40;10.02;;;0.00;99.90;;;;;;5050170;28;20401;-50
2023/11/30 05:00:23;;;;;;;18.60;10.48;;;0.10;99.90;;;;;;5050551;28;20317;-50
2023/11/30 05:02:53;;;;;;;19.33;10.23;;;0.10;99.90;;;;;;5050548;28;20032;-49
2023/11/30 05:05:22;;;;;;;17.40;10.07;;;0.20;99.90;;;;;;5049141;28;20517;-52
2023/11/30 05:07:48;;;;;;;18.23;10.02;;;0.10;99.90;;;;;;5050297;28;20477;-52
2023/11/30 05:10:14;;;;;;;19.55;10.60;;;0.00;99.90;;;;;;5051041;28;20021;-52
2023/11/30 05:12:40;;;;;;;21.25;10.88;;;0.10;99.90;;;;;;5050680;28;20382;-52
2023/11/30 05:15:05;;;;;;;19.23;10.15;;;0.10;99.90;;;;;;5050421;28;20021;-50
2023/11/30 05:17:32;;;;;;;20.33;10.32;;;0.00;99.90;;;;;;5050001;28;20057;-53
2023/11/30 05:19:57;;;;;;;20.83;11.20;;;0.00;99.90;;;;;;5049340;28;20112;-49
2023/11/30 05:22:23;;;;;;;19.15;11.02;;;0.10;99.90;;;;;;5050326;28;20120;-51
2023/11/30 05:24:51;;;;;;;23.33;12.05;;;0.10;99.90;;;;;;5048932;28;20032;-49
2023/11/30 05:27:17;;;;;;;24.05;13.75;;;0.10;99.90;;;;;;5049735;28;20025;-49
2023/11/30 05:29:42;;;;;;;23.77;13.52;;;0.10;99.90;;;;;;5047647;28;20071;-50
2023/11/30 05:32:08;;;;;;;21.70;12.55;;;0.10;99.90;;;;;;5049093;28;20130;-50
2023/11/30 05:34:35;;;;;;;22.73;12.07;;;0.00;99.90;;;;;;5050542;28;20021;-49
2023/11/30 05:37:03;;;;;;;24.63;12.55;;;0.10;99.90;;;;;;5036911;28;20072;-53
2023/11/30 05:39:29;;;;;;;24.27;12.48;;;0.10;99.90;;;;;;5048697;28;20045;-52
2023/11/30 05:41:55;;;;;;;25.88;13.43;;;0.10;99.90;;;;;;5049388;28;20107;-51
2023/11/30 05:44:20;;;;;;;23.90;13.02;;;0.10;99.90;;;;;;5048272;28;20470;-50
2023/11/30 05:46:46;;;;;;;23.55;12.60;;;0.10;99.90;;;;;;5049195;28;20419;-49
2023/11/30 05:49:13;;;;;;;25.92;13.68;;;0.10;99.90;;;;;;5049664;28;20021;-51
2023/11/30 05:51:40;;;;;;;23.70;14.32;;;0.10;99.90;;;;;;5050041;28;20052;-52
2023/11/30 05:54:05;;;;;;;29.88;14.85;;;0.10;99.90;;;;;;5048378;28;20028;-49
2023/11/30 05:56:31;;;;;;;27.05;13.75;;;0.10;99.90;;;;;;5048542;28;20029;-49
2023/11/30 05:58:58;;;;;;;27.92;13.73;;;0.10;99.90;;;;;;5049223;28;20364;-51
2023/11/30 06:01:23;;;;;;;27.60;13.98;;;0.10;99.90;;;;;;5049726;28;20029;-52
2023/11/30 06:03:49;;;;;;;29.85;15.35;;;0.10;99.90;;;;;;5049819;28;20075;-50
2023/11/30 06:06:14;;;;;;;30.15;16.38;;;0.10;99.90;;;;;;5049207;28;20033;-49
2023/11/30 06:08:40;;;;;;;24.35;13.65;;;0.00;99.90;;;;;;5049079;28;20039;-50
2023/11/30 06:11:06;;;;;;;30.58;14.48;;;0.10;99.90;;;;;;5049370;28;20079;-49
2023/11/30 06:13:31;;;;;;;30.40;14.82;;;0.10;99.90;;;;;;5042096;28;20033;-51
2023/11/30 06:15:57;;;;;;;28.63;14.70;;;0.20;99.90;;;;;;5042447;28;20028;-50
2023/11/30 06:18:23;;;;;;;28.42;15.20;;;0.20;99.90;;;;;;5047038;28;20071;-50
2023/11/30 06:20:49;;;;;;;27.92;15.18;;;0.20;99.90;;;;;;5047812;28;20497;-47
2023/11/30 06:23:15;;;;;;;28.02;14.68;;;0.20;99.90;;;;;;5047233;28;20037;-47
2023/11/30 06:25:42;;;;;;;30.50;14.82;;;0.20;99.90;;;;;;5047683;28;20035;-49
2023/11/30 06:28:07;;;;;;;29.77;15.20;;;0.20;99.90;;;;;;5039716;28;20393;-50
2023/11/30 06:30:33;;;;;;;30.75;14.90;;;0.20;99.90;;;;;;5049029;28;20021;-47
2023/11/30 06:32:59;;;;;;;29.73;16.05;;;0.30;99.90;;;;;;5046055;28;20033;-50
2023/11/30 06:35:24;;;;;;;29.63;14.88;;;0.20;99.90;;;;;;5037501;28;20033;-49
2023/11/30 06:37:50;;;;;;;31.63;15.98;;;0.30;99.90;;;;;;5039586;28;20025;-47
2023/11/30 06:40:15;;;;;;;31.00;15.25;;;0.30;99.90;;;;;;5048920;28;20031;-49
2023/11/30 06:42:41;;;;;;;29.42;15.30;;;0.30;99.90;;;;;;5047440;28;20128;-48
2023/11/30 06:45:07;;;;;;;26.63;13.73;;;0.30;99.90;;;;;;5049050;28;20075;-47
2023/11/30 06:47:33;;;;;;;33.25;15.60;;;0.30;99.90;;;;;;5046638;28;20456;-48
2023/11/30 06:49:58;;;;;;;28.08;15.60;;;0.40;99.90;;;;;;5048483;28;20017;-48
2023/11/30 06:52:25;;;;;;;31.55;15.13;;;0.30;99.90;;;;;;5046750;28;20143;-50
2023/11/30 06:54:50;;;;;;;26.98;15.63;;;0.30;99.90;;;;;;5034723;28;20036;-49
2023/11/30 06:57:16;;;;;;;29.77;16.35;;;0.40;99.90;;;;;;5047663;28;20037;-51
2023/11/30 06:59:43;;;;;;;27.67;14.88;;;0.30;99.90;;;;;;5048180;28;20441;-48
2023/11/30 07:02:09;;;;;;;25.85;14.02;;;0.40;99.90;;;;;;5045084;28;20089;-48
2023/11/30 07:04:35;;;;;;;29.40;16.23;;;0.40;99.90;;;;;;5048188;28;20032;-49
2023/11/30 07:07:01;;;;;;;30.70;15.73;;;0.40;99.90;;;;;;5048043;28;20124;-48
2023/11/30 07:09:28;;;;;;;24.90;14.35;;;0.40;99.90;;;;;;5048003;28;20145;-50
2023/11/30 07:11:53;;;;;;;29.42;15.52;;;0.40;99.90;;;;;;5037532;28;20026;-48
2023/11/30 07:14:19;;;;;;;28.52;15.10;;;0.40;99.90;;;;;;5028252;28;20025;-48
2023/11/30 07:16:45;;;;;;;25.50;14.48;;;0.30;99.90;;;;;;5028138;28;20060;-51
2023/11/30 07:19:13;;;;;;;27.20;15.57;;;0.30;99.90;;;;;;5030045;28;20437;-50
2023/11/30 07:21:38;;;;;;;29.98;15.38;;;0.40;99.90;;;;;;5030969;28;20025;-53
2023/11/30 07:24:04;;;;;;;29.20;15.13;;;0.40;99.90;;;;;;5032514;28;20235;-53
2023/11/30 07:26:30;;;;;;;31.10;15.80;;;0.30;99.90;;;;;;5032315;28;20049;-52
2023/11/30 07:28:55;;;;;;;30.67;15.55;;;0.30;99.90;;;;;;5031459;28;20029;-52
2023/11/30 07:31:21;;;;;;;29.33;16.48;;;0.40;99.90;;;;;;5034987;28;20026;-53
2023/11/30 07:33:48;;;;;;;30.05;15.50;;;0.40;99.90;;;;;;5039869;28;20022;-51
2023/11/30 07:36:14;;;;;;;26.58;15.02;;;0.40;99.90;;;;;;5047954;28;20013;-52
2023/11/30 07:38:40;;;;;;;30.92;15.20;;;0.50;99.90;;;;;;5047829;28;20543;-53
2023/11/30 07:41:06;;;;;;;26.33;14.98;;;0.50;99.90;;;;;;5048141;28;20052;-53
2023/11/30 07:43:32;;;;;;;26.00;14.73;;;0.50;99.90;;;;;;5046669;28;20032;-50
2023/11/30 07:45:58;;;;;;;30.13;15.15;;;0.60;99.90;;;;;;5028476;28;20109;-51
2023/11/30 07:48:23;;;;;;;29.15;15.02;;;0.60;99.90;;;;;;5032779;28;20022;-53
2023/11/30 07:50:50;;;;;;;26.45;14.95;;;0.60;99.90;;;;;;5030250;28;20048;-52
2023/11/30 07:53:17;;;;;;;29.42;14.50;;;0.60;99.90;;;;;;5045172;28;20021;-51
2023/11/30 07:55:43;;;;;;;28.30;15.52;;;0.60;99.90;;;;;;5048263;28;20025;-50
2023/11/30 07:58:09;;;;;;;29.52;15.63;;;0.60;99.90;;;;;;5048111;28;20131;-50
2023/11/30 08:00:34;;;;;;;25.92;14.65;;;0.70;99.90;;;;;;5048322;28;20040;-50
2023/11/30 08:03:01;;;;;;;27.75;14.50;;;0.70;99.90;;;;;;5048416;28;20025;-50
2023/11/30 08:05:27;;;;;;;28.33;14.68;;;0.70;99.90;;;;;;5048068;28;20273;-53
2023/11/30 08:07:52;;;;;;;35.80;15.13;;;0.70;99.90;;;;;;5047547;28;20017;-53
2023/11/30 08:10:18;;;;;;;27.80;13.45;;;0.80;99.90;;;;;;5049262;28;20059;-51
2023/11/30 08:12:44;;;;;;;24.98;13.45;;;0.90;99.90;;;;;;5051656;28;20017;-51
2023/11/30 08:15:09;;;;;;;21.90;12.75;;;0.90;99.90;;;;;;5051559;28;20028;-50
2023/11/30 08:17:35;;;;;;;22.92;12.85;;;0.90;99.90;;;;;;5050945;28;20064;-51
2023/11/30 08:20:01;;;;;;;22.80;12.40;;;0.90;99.90;;;;;;5051342;28;20025;-50
2023/11/30 08:22:27;;;;;;;26.55;13.48;;;0.90;99.90;;;;;;5050001;28;20032;-50
2023/11/30 08:24:53;;;;;;;29.70;14.82;;;0.90;99.90;;;;;;5050827;28;20147;-50
2023/11/30 08:27:22;;;;;;;22.38;12.30;;;0.90;99.90;;;;;;5051040;28;20044;-49
2023/11/30 08:29:49;;;;;;;22.63;11.85;;;0.80;99.90;;;;;;5049715;28;20478;-49
2023/11/30 08:32:14;;;;;;;26.55;15.32;;;0.90;99.90;;;;;;5051730;28;20056;-50
2023/11/30 08:34:40;;;;;;;22.65;12.70;;;0.90;99.90;;;;;;5051280;28;20461;-50
2023/11/30 08:37:06;;;;;;;23.15;12.45;;;0.90;99.90;;;;;;5050717;28;20086;-52
2023/11/30 08:39:31;;;;;;;30.10;14.10;;;0.80;99.90;;;;;;5050537;28;20390;-50
2023/11/30 08:41:57;;;;;;;22.23;13.35;;;0.90;99.90;;;;;;5050945;28;20029;-52
2023/11/30 08:44:22;;;;;;;24.63;13.48;;;1.00;99.90;;;;;;5050940;28;20060;-52
2023/11/30 08:46:48;;;;;;;26.63;14.73;;;1.10;99.90;;;;;;5049402;28;20293;-51
2023/11/30 08:49:14;;;;;;;23.42;12.90;;;1.10;99.90;;;;;;5050904;28;20414;-51
2023/11/30 08:51:40;;;;;;;24.63;13.50;;;1.20;99.90;;;;;;5051335;28;20017;-50
2023/11/30 08:54:06;;;;;;;30.80;13.85;;;1.20;99.90;;;;;;5051246;28;20314;-52
2023/11/30 08:56:32;;;;;;;24.52;12.85;;;1.20;99.90;;;;;;5050577;28;20024;-52
2023/11/30 08:58:58;;;;;;;25.23;13.80;;;1.20;99.90;;;;;;5050321;28;20481;-50
2023/11/30 09:01:23;;;;;;;24.58;12.93;;;1.30;99.90;;;;;;5050411;28;20155;-54
2023/11/30 09:03:51;;;;;;;26.90;13.07;;;1.40;99.90;;;;;;5049911;28;20021;-52
2023/11/30 09:06:17;;;;;;;26.63;13.70;;;1.50;99.90;;;;;;5049704;28;20043;-54
2023/11/30 09:08:42;;;;;;;23.92;12.18;;;1.60;99.90;;;;;;5049943;28;20029;-52
2023/11/30 09:11:08;;;;;;;19.20;12.73;;;1.70;99.90;;;;;;5050888;28;20155;-54
2023/11/30 09:13:35;;;;;;;18.20;11.70;;;1.70;99.90;;;;;;5050685;28;20449;-53
2023/11/30 09:16:01;;;;;;;21.63;12.77;;;1.80;99.90;;;;;;5050518;28;20762;-52
2023/11/30 09:18:27;;;;;;;21.63;12.23;;;1.80;99.90;;;;;;5049459;28;20036;-51
2023/11/30 09:20:52;;;;;;;21.45;12.52;;;1.80;99.90;;;;;;5050166;28;20029;-53
2023/11/30 09:23:18;;;;;;;22.90;12.32;;;1.80;99.90;;;;;;5048855;28;20116;-53
2023/11/30 09:25:44;;;;;;;21.33;12.57;;;1.70;99.90;;;;;;5050282;28;20025;-50
2023/11/30 09:28:10;;;;;;;21.77;12.23;;;1.70;99.90;;;;;;5049771;28;20070;-52
2023/11/30 09:30:35;;;;;;;18.45;10.45;;;1.70;99.90;;;;;;5050610;28;20025;-50
2023/11/30 09:33:01;;;;;;;21.17;11.43;;;1.70;99.90;;;;;;5050227;28;20017;-53
2023/11/30 09:35:26;;;;;;;19.38;11.13;;;1.80;99.90;;;;;;5050516;28;20017;-53
2023/11/30 09:37:52;;;;;;;19.38;11.60;;;1.70;99.90;;;;;;5049739;28;20036;-52
2023/11/30 09:40:18;;;;;;;19.58;11.13;;;1.80;99.90;;;;;;5049878;28;20028;-53
2023/11/30 09:42:45;;;;;;;17.02;10.70;;;2.00;99.90;;;;;;5049989;28;20033;-53
2023/11/30 09:45:11;;;;;;;16.48;10.65;;;2.00;99.90;;;;;;5049998;28;20456;-53
2023/11/30 09:47:36;;;;;;;18.17;11.07;;;2.10;99.90;;;;;;5049757;28;20037;-54
2023/11/30 09:50:03;;;;;;;21.65;12.07;;;2.10;99.90;;;;;;5050230;28;20021;-52
2023/11/30 09:52:29;;;;;;;21.23;10.63;;;2.00;99.90;;;;;;5050262;28;20025;-54
2023/11/30 09:54:58;;;;;;;18.25;10.32;;;1.90;99.90;;;;;;5049814;28;20078;-53
2023/11/30 09:57:24;;;;;;;18.00;9.77;;;1.90;99.90;;;;;;5049698;28;20033;-54
2023/11/30 09:59:50;;;;;;;16.08;9.60;;;2.00;99.90;;;;;;5049452;28;20021;-53
2023/11/30 10:02:17;;;;;;;19.98;10.77;;;2.00;99.90;;;;;;5049542;28;20040;-53
2023/11/30 10:04:44;;;;;;;17.48;10.38;;;2.10;99.90;;;;;;5047990;28;20101;-53
2023/11/30 10:07:10;;;;;;;18.20;10.60;;;2.00;99.90;;;;;;5049321;28;20044;-53
2023/11/30 10:09:37;;;;;;;17.63;9.60;;;2.20;99.90;;;;;;5048924;28;20021;-53
2023/11/30 10:12:03;;;;;;;14.55;9.23;;;2.40;99.90;;;;;;5049646;28;20040;-51
2023/11/30 10:14:29;;;;;;;14.10;9.80;;;2.50;99.90;;;;;;5049179;28;20083;-54
2023/11/30 10:16:54;;;;;;;16.52;9.25;;;2.70;99.90;;;;;;5049191;28;20329;-54
2023/11/30 10:19:20;;;;;;;19.98;10.48;;;2.90;99.90;;;;;;5049478;28;20029;-53
2023/11/30 10:21:47;;;;;;;13.90;8.35;;;3.20;99.90;;;;;;5048224;28;20029;-55
2023/11/30 10:24:13;;;;;;;13.27;8.70;;;3.90;99.90;;;;;;5049479;28;20031;-54
2023/11/30 10:26:42;;;;;;;11.77;7.68;;;4.80;99.90;;;;;;5049022;28;20028;-54
2023/11/30 10:29:11;;;;;;;12.25;7.47;;;5.00;99.90;;;;;;5049239;28;20044;-55
2023/11/30 10:31:39;;;;;;;11.32;7.05;;;4.90;99.90;;;;;;5047952;28;20055;-53
2023/11/30 10:34:10;;;;;;;12.18;8.38;;;5.40;99.90;;;;;;5048580;28;20254;-55
2023/11/30 10:36:37;;;;;;;10.43;7.10;;;6.80;99.90;;;;;;5048774;28;20086;-55
2023/11/30 10:39:16;;;;;;;9.45;7.30;;;7.70;99.90;;;;;;5048643;28;20021;-55
2023/11/30 10:41:52;;;;;;;8.93;7.47;;;9.10;99.90;;;;;;5049070;28;20128;-55
2023/11/30 10:44:28;;;;;;;10.23;7.85;;;10.10;95.20;;;;;;5048921;28;20441;-55
2023/11/30 10:46:55;;;;;;;7.45;6.05;;;11.00;92.00;;;;;;5048895;28;20053;-54
2023/11/30 10:49:25;;;;;;;9.50;5.90;;;11.20;92.00;;;;;;5048775;28;20029;-55
2023/11/30 10:51:53;;;;;;;7.38;5.65;;;11.40;90.50;;;;;;5049154;28;20017;-55
2023/11/30 10:54:49;;;;;;;5.88;5.05;;;11.50;87.40;;;;;;5048529;28;20052;-55
2023/11/30 10:57:16;;;;;;;5.95;4.90;;;12.00;88.90;;;;;;5049107;28;20021;-55
2023/11/30 10:59:45;;;;;;;4.95;4.50;;;12.60;85.00;;;;;;5048630;28;20029;-59
2023/11/30 11:02:15;;;;;;;6.07;4.47;;;13.10;83.50;;;;;;5047831;28;20029;-55
2023/11/30 11:04:42;;;;;;;7.22;5.28;;;14.10;79.30;;;;;;5047668;28;20032;-55
2023/11/30 11:07:11;;;;;;;8.60;5.97;;;14.40;77.70;;;;;;5048495;28;20043;-55
2023/11/30 11:09:43;;;;;;;6.82;5.53;;;14.70;74.90;;;;;;5048470;28;20416;-55
2023/11/30 11:12:22;;;;;;;6.88;5.18;;;14.50;70.80;;;;;;5048454;28;20024;-55
2023/11/30 11:14:48;;;;;;;6.13;5.28;;;13.50;72.80;;;;;;5048499;28;20024;-55
2023/11/30 11:17:15;;;;;;;7.28;6.13;;;13.40;73.20;;;;;;5048277;28;20040;-54
2023/11/30 11:19:42;;;;;;;10.77;6.63;;;12.10;76.20;;;;;;5047971;28;20021;-54
2023/11/30 11:22:26;;;;;;;9.73;7.25;;;10.30;80.80;;;;;;5048548;28;20032;-54
2023/11/30 11:24:59;;;;;;;9.88;7.82;;;9.20;84.70;;;;;;5048724;28;20021;-51
2023/11/30 11:27:26;;;;;;;11.80;8.60;;;8.10;90.50;;;;;;5046795;28;20048;-53
2023/11/30 11:29:52;;;;;;;10.95;8.80;;;7.60;91.70;;;;;;5034297;28;20033;-53
2023/11/30 11:32:18;;;;;;;12.65;8.43;;;7.30;92.40;;;;;;5031852;28;20430;-53
2023/11/30 11:34:44;;;;;;;12.13;8.20;;;7.40;92.50;;;;;;5027949;28;20104;-53
2023/11/30 11:37:10;;;;;;;9.98;7.72;;;7.10;93.70;;;;;;5027549;28;20509;-53
2023/11/30 11:39:35;;;;;;;9.75;6.63;;;7.40;93.10;;;;;;5029849;28;20021;-53
2023/11/30 11:42:02;;;;;;;10.63;7.40;;;7.00;92.70;;;;;;5028911;28;20017;-54
2023/11/30 11:44:27;;;;;;;10.93;8.07;;;6.90;93.70;;;;;;5031415;28;20013;-53
2023/11/30 11:46:53;;;;;;;12.68;8.35;;;6.70;94.60;;;;;;5032819;28;20083;-52
2023/11/30 11:49:18;;;;;;;10.70;7.78;;;6.50;95.50;;;;;;5033129;28;20057;-54
2023/11/30 11:51:45;;;;;;;11.43;8.65;;;6.50;96.50;;;;;;5033241;28;20442;-54
2023/11/30 11:54:21;;;;;;;13.48;8.95;;;6.60;97.00;;;;;;5033075;28;20429;-54
2023/11/30 11:56:52;;;;;;;14.55;9.40;;;6.50;97.30;;;;;;5032104;28;20036;-53
2023/11/30 11:59:21;;;;;;;;;;;6.20;97.60;;;;;;5033349;28;20364;-53
2023/11/30 12:01:47;;;;;;;12.80;8.30;;;6.00;99.10;;;;;;5034751;28;19905;-54
2023/11/30 12:04:24;;;;;;;11.52;7.93;;;5.90;99.40;;;;;;5036837;28;20496;-54
2023/11/30 12:06:49;;;;;;;11.60;8.05;;;5.70;98.70;;;;;;5032097;28;20129;-52
2023/11/30 12:09:15;;;;;;;11.75;8.00;;;5.50;99.40;;;;;;5032960;28;20468;-53
2023/11/30 12:11:40;;;;;;;11.90;8.18;;;5.30;99.90;;;;;;5031966;28;20423;-53
2023/11/30 12:14:06;;;;;;;11.23;7.47;;;4.80;99.90;;;;;;5032640;28;20029;-51
2023/11/30 12:16:34;;;;;;;13.68;7.35;;;4.70;99.90;;;;;;5033258;28;20045;-50
2023/11/30 12:19:00;;;;;;;11.70;7.45;;;4.60;99.90;;;;;;5032118;28;20013;-52
2023/11/30 12:21:25;;;;;;;11.25;7.13;;;4.30;99.90;;;;;;5032913;28;20010;-52
2023/11/30 12:23:51;;;;;;;11.02;6.93;;;4.00;99.90;;;;;;5043657;28;20516;-53
2023/11/30 12:26:16;;;;;;;10.40;6.63;;;4.00;99.90;;;;;;5049551;28;20037;-54
2023/11/30 12:28:42;;;;;;;10.25;6.15;;;4.00;99.90;;;;;;5051064;28;20100;-50
2023/11/30 12:31:07;;;;;;;8.80;6.43;;;4.00;99.90;;;;;;5051813;28;20113;-52
2023/11/30 12:33:33;;;;;;;9.63;6.32;;;4.00;99.90;;;;;;5051535;28;20104;-53
2023/11/30 12:35:59;;;;;;;9.27;6.00;;;4.00;99.90;;;;;;5042353;28;20108;-53